Time;durP1;ratioP1;P1;durP2;ratioP2;P2;SDS_P1;SDS_P2;PMS_P1;PMS_P2;Temp;Humidity;BMP_temperature;BMP_pressure;BME280_temperature;BME280_humidity;BME280_pressure;Samples;Min_cycle;Max_cycle;Signal;HPM_P1;HPM_P2
2023/07/18 00:00:33;;;;;;;;;;;;;;;23.54;74.27;100237.27;108087;1257;76333;-78
2023/07/18 00:02:59;;;;;;;;;;;;;;;23.50;74.62;100235.84;108090;1256;73155;-78
2023/07/18 00:05:26;;;;;;;;;;;;;;;23.50;74.58;100240.27;108085;1257;71181;-77
2023/07/18 00:07:53;;;;;;;;;;;;;;;23.48;74.69;100244.81;108088;1257;61082;-77
2023/07/18 00:10:20;;;;;;;;;;;;;;;23.45;74.70;100244.45;108132;1255;61116;-77
2023/07/18 00:12:46;;;;;;;;;;;;;;;23.40;74.80;100239.79;108101;1257;74691;-77
2023/07/18 00:15:13;;;;;;;;;;;;;;;23.40;75.00;100237.55;108066;1254;72116;-77
2023/07/18 00:17:40;;;;;;;;;;;;;;;23.42;75.21;100231.19;108157;1254;61301;-78
2023/07/18 00:20:12;;;;;;;;;;;;;;;23.44;75.32;100233.05;108101;1254;62975;-78
2023/07/18 00:22:43;;;;;;;;;;;;;;;23.40;75.24;100229.84;108081;1254;61382;-78
2023/07/18 00:25:13;;;;;;;;;;;;;;;23.33;74.94;100222.81;108102;1254;74564;-77
2023/07/18 00:27:40;;;;;;;;;;;;;;;23.25;75.03;100223.70;108121;1259;75367;-77
2023/07/18 00:30:07;;;;;;;;;;;;;;;23.22;75.31;100218.09;108141;1254;70646;-77
2023/07/18 00:32:34;;;;;;;;;;;;;;;23.21;75.41;100212.54;108123;1259;61565;-77
2023/07/18 00:35:01;;;;;;;;;;;;;;;23.21;75.53;100210.83;108148;1254;61120;-77
2023/07/18 00:37:28;;;;;;;;;;;;;;;23.21;75.50;100205.91;108132;1254;72400;-77
2023/07/18 00:39:54;;;;;;;;;;;;;;;23.15;75.51;100200.27;108140;1254;71949;-77
2023/07/18 00:42:21;;;;;;;;;;;;;;;23.09;75.42;100191.84;108087;1256;61160;-77
2023/07/18 00:44:48;;;;;;;;;;;;;;;23.01;75.50;100184.00;108070;1254;61154;-78
2023/07/18 00:47:15;;;;;;;;;;;;;;;22.88;75.46;100182.64;108061;1257;61133;-77
2023/07/18 00:49:42;;;;;;;;;;;;;;;22.78;75.53;100178.39;108068;1259;74977;-77
2023/07/18 00:52:08;;;;;;;;;;;;;;;22.74;75.77;100171.77;108034;1254;71860;-77
2023/07/18 00:54:35;;;;;;;;;;;;;;;22.74;75.80;100167.60;108028;1254;75714;-76
2023/07/18 00:57:02;;;;;;;;;;;;;;;22.69;75.82;100160.83;108026;1254;62022;-77
2023/07/18 00:59:29;;;;;;;;;;;;;;;22.64;75.89;100158.49;107912;1254;61279;-76
2023/07/18 01:01:56;;;;;;;;;;;;;;;22.59;75.74;100157.19;108061;1254;75082;-78
2023/07/18 01:04:23;;;;;;;;;;;;;;;22.58;76.04;100152.98;108077;1258;72676;-76
2023/07/18 01:06:52;;;;;;;;;;;;;;;22.59;76.10;100153.70;108068;1254;72299;-77
2023/07/18 01:09:21;;;;;;;;;;;;;;;22.65;76.09;100150.36;108096;1254;61284;-77
2023/07/18 01:11:48;;;;;;;;;;;;;;;22.75;75.69;100149.20;108114;1254;61155;-77
2023/07/18 01:14:15;;;;;;;;;;;;;;;22.78;75.50;100151.55;108150;1254;74497;-77
2023/07/18 01:16:41;;;;;;;;;;;;;;;22.79;75.47;100148.92;107950;1254;72583;-77
2023/07/18 01:19:11;;;;;;;;;;;;;;;22.81;75.40;100146.81;107912;1260;72721;-77
2023/07/18 01:21:39;;;;;;;;;;;;;;;22.81;75.38;100143.01;108073;1254;61119;-77
2023/07/18 01:24:05;;;;;;;;;;;;;;;22.80;75.40;100141.17;108097;1254;61251;-77
2023/07/18 01:26:34;;;;;;;;;;;;;;;22.79;75.57;100142.23;108112;1254;74609;-77
2023/07/18 01:29:03;;;;;;;;;;;;;;;22.79;75.64;100139.28;108018;1254;72801;-77
2023/07/18 01:31:30;;;;;;;;;;;;;;;22.83;75.71;100139.30;108072;1254;74231;-78
2023/07/18 01:33:57;;;;;;;;;;;;;;;22.89;75.55;100144.90;108103;1254;61991;-77
2023/07/18 01:36:26;;;;;;;;;;;;;;;22.91;75.48;100139.45;107983;1254;61144;-79
2023/07/18 01:38:53;;;;;;;;;;;;;;;22.90;75.34;100139.02;108072;1256;74698;-77
2023/07/18 01:41:21;;;;;;;;;;;;;;;22.91;75.39;100138.04;108056;1254;72560;-78
2023/07/18 01:43:48;;;;;;;;;;;;;;;22.91;75.25;100132.45;108075;1256;71608;-77
2023/07/18 01:46:15;;;;;;;;;;;;;;;22.89;75.18;100126.31;108020;1257;62062;-79
2023/07/18 01:48:43;;;;;;;;;;;;;;;22.80;75.10;100128.18;108076;1255;60941;-78
2023/07/18 01:51:10;;;;;;;;;;;;;;;22.76;75.27;100126.91;107930;1256;75435;-77
2023/07/18 01:53:36;;;;;;;;;;;;;;;22.70;75.37;100129.09;108137;1256;72846;-77
2023/07/18 01:56:03;;;;;;;;;;;;;;;22.67;75.65;100126.77;108138;1254;72639;-77
2023/07/18 01:58:30;;;;;;;;;;;;;;;22.64;75.79;100132.59;108094;1254;61720;-78
2023/07/18 02:00:57;;;;;;;;;;;;;;;22.62;75.83;100133.32;107966;1254;61088;-78
2023/07/18 02:03:26;;;;;;;;;;;;;;;22.66;75.75;100136.86;108084;1254;75640;-78
2023/07/18 02:05:54;;;;;;;;;;;;;;;22.74;75.65;100134.57;108045;1254;72519;-78
2023/07/18 02:08:23;;;;;;;;;;;;;;;22.75;75.53;100136.55;107876;1256;72769;-78
2023/07/18 02:10:50;;;;;;;;;;;;;;;22.72;75.51;100142.84;108082;1254;62200;-78
2023/07/18 02:13:18;;;;;;;;;;;;;;;22.69;75.58;100143.15;107945;1255;61261;-78
2023/07/18 02:15:45;;;;;;;;;;;;;;;22.70;75.77;100143.80;108113;1256;73509;-78
2023/07/18 02:18:12;;;;;;;;;;;;;;;22.73;75.71;100135.48;108073;1254;72713;-77
2023/07/18 02:20:40;;;;;;;;;;;;;;;22.80;75.98;100129.52;108155;1258;72683;-78
2023/07/18 02:23:09;;;;;;;;;;;;;;;22.87;75.98;100125.56;108131;1256;61413;-78
2023/07/18 02:25:38;;;;;;;;;;;;;;;22.91;76.13;100124.96;108060;1256;60501;-78
2023/07/18 02:28:07;;;;;;;;;;;;;;;22.92;76.07;100120.16;108063;1255;73221;-78
2023/07/18 02:30:35;;;;;;;;;;;;;;;22.90;76.09;100118.80;108008;1256;72591;-78
2023/07/18 02:33:07;;;;;;;;;;;;;;;22.84;76.15;100111.96;108070;1254;72576;-78
2023/07/18 02:35:34;;;;;;;;;;;;;;;22.82;76.30;100114.31;108077;1254;62180;-78
2023/07/18 02:38:01;;;;;;;;;;;;;;;22.82;76.33;100113.46;108084;1254;61168;-78
2023/07/18 02:40:28;;;;;;;;;;;;;;;22.84;76.34;100117.55;108056;1254;74687;-78
2023/07/18 02:42:56;;;;;;;;;;;;;;;22.85;76.34;100114.08;108043;1256;73621;-78
2023/07/18 02:45:23;;;;;;;;;;;;;;;22.81;76.34;100114.29;107885;1260;71551;-78
2023/07/18 02:47:50;;;;;;;;;;;;;;;22.75;76.33;100114.98;108056;1256;61709;-78
2023/07/18 02:50:16;;;;;;;;;;;;;;;22.74;76.40;100114.27;107906;1255;61167;-78
2023/07/18 02:52:44;;;;;;;;;;;;;;;22.78;76.39;100118.39;108069;1255;74694;-78
2023/07/18 02:55:11;;;;;;;;;;;;;;;22.83;76.34;100117.37;107884;1256;72617;-78
2023/07/18 02:57:40;;;;;;;;;;;;;;;22.91;76.47;100112.38;108079;1255;72717;-78
2023/07/18 03:00:19;;;;;;;;;;;;;;;22.97;76.45;100111.45;108012;1254;61882;-79
2023/07/18 03:02:48;;;;;;;;;;;;;;;23.03;76.20;100110.12;108106;1254;61164;-78
2023/07/18 03:05:15;;;;;;;;;;;;;;;23.09;76.17;100110.04;108144;1254;74365;-79
2023/07/18 03:07:44;;;;;;;;;;;;;;;23.08;76.28;100120.30;108140;1254;72768;-79
2023/07/18 03:10:11;;;;;;;;;;;;;;;23.20;76.16;100136.84;108093;1254;72748;-78
2023/07/18 03:12:40;;;;;;;;;;;;;;;23.30;75.77;100183.09;107924;1256;61218;-79
2023/07/18 03:15:09;;;;;;;;;;;;;;;23.36;75.31;100186.98;108102;1255;61151;-79
2023/07/18 03:17:36;;;;;;;;;;;;;;;23.44;74.82;100173.85;108111;1254;74644;-78
2023/07/18 03:20:10;;;;;;;;;;;;;;;23.52;74.09;100187.13;108138;1254;72435;-79
2023/07/18 03:22:38;;;;;;;;;;;;;;;23.57;72.79;100195.80;108062;1254;73081;-78
2023/07/18 03:25:05;;;;;;;;;;;;;;;23.62;72.17;100198.90;108083;1256;61936;-79
2023/07/18 03:27:34;;;;;;;;;;;;;;;23.66;71.19;100189.73;108059;1254;60394;-79
2023/07/18 03:30:00;;;;;;;;;;;;;;;23.69;70.44;100185.14;108049;1256;74489;-79
2023/07/18 03:32:30;;;;;;;;;;;;;;;23.74;70.15;100187.13;108108;1254;72425;-79
2023/07/18 03:34:57;;;;;;;;;;;;;;;23.78;70.05;100184.33;108109;1258;72869;-78
2023/07/18 03:37:25;;;;;;;;;;;;;;;23.82;69.91;100179.59;108053;1256;62087;-78
2023/07/18 03:39:54;;;;;;;;;;;;;;;23.87;69.80;100169.41;108124;1255;61139;-78
2023/07/18 03:42:21;;;;;;;;;;;;;;;23.95;69.89;100170.45;108070;1254;72520;-78
2023/07/18 03:44:50;;;;;;;;;;;;;;;24.03;69.73;100168.75;107935;1254;71248;-78
2023/07/18 03:47:17;;;;;;;;;;;;;;;24.11;69.44;100173.13;108060;1254;72536;-78
2023/07/18 03:49:49;;;;;;;;;;;;;;;24.17;69.23;100165.07;108086;1254;61997;-78
2023/07/18 03:52:16;;;;;;;;;;;;;;;24.24;69.21;100164.43;108114;1254;61123;-78
2023/07/18 03:54:43;;;;;;;;;;;;;;;24.31;68.92;100170.43;108112;1254;75006;-78
2023/07/18 03:57:10;;;;;;;;;;;;;;;24.35;68.76;100172.15;108097;1254;71437;-76
2023/07/18 03:59:37;;;;;;;;;;;;;;;24.41;68.80;100176.71;108117;1254;72685;-78
2023/07/18 04:02:05;;;;;;;;;;;;;;;24.47;68.43;100167.65;108090;1254;61833;-78
2023/07/18 04:04:34;;;;;;;;;;;;;;;24.52;68.44;100167.98;108161;1254;61104;-78
2023/07/18 04:07:01;;;;;;;;;;;;;;;24.56;68.23;100175.79;108172;1254;74727;-78
2023/07/18 04:09:29;;;;;;;;;;;;;;;24.59;68.03;100167.89;108114;1254;72297;-78
2023/07/18 04:11:56;;;;;;;;;;;;;;;24.64;67.86;100162.59;108040;1254;72463;-78
2023/07/18 04:14:32;;;;;;;;;;;;;;;24.70;67.47;100159.66;108053;1254;61253;-78
2023/07/18 04:16:59;;;;;;;;;;;;;;;24.75;67.25;100165.99;108007;1258;61086;-79
2023/07/18 04:19:26;;;;;;;;;;;;;;;24.77;67.27;100157.86;108069;1257;74513;-78
2023/07/18 04:21:53;;;;;;;;;;;;;;;24.79;67.21;100158.11;108076;1256;72785;-78
2023/07/18 04:24:20;;;;;;;;;;;;;;;24.90;66.92;100161.50;107974;1254;71585;-78
2023/07/18 04:26:47;;;;;;;;;;;;;;;24.86;67.06;100152.15;108418;1254;62053;-78
2023/07/18 04:29:19;;;;;;;;;;;;;;;24.90;67.10;100145.34;108074;1254;61253;-77
2023/07/18 04:31:46;;;;;;;;;;;;;;;24.94;66.92;100145.73;108155;1254;74694;-78
2023/07/18 04:34:12;;;;;;;;;;;;;;;24.99;66.70;100146.84;108203;1254;72772;-78
2023/07/18 04:36:41;;;;;;;;;;;;;;;25.06;66.62;100149.14;108156;1254;71434;-78
2023/07/18 04:39:08;;;;;;;;;;;;;;;25.15;66.34;100146.66;108070;1254;61809;-78
2023/07/18 04:41:35;;;;;;;;;;;;;;;25.21;65.93;100147.85;108061;1256;62001;-78
2023/07/18 04:44:20;;;;;;;;;;;;;;;25.23;65.00;100148.60;108110;1254;73908;-78
2023/07/18 04:46:47;;;;;;;;;;;;;;;25.22;63.82;100144.36;108088;1256;72455;-78
2023/07/18 04:49:15;;;;;;;;;;;;;;;25.19;62.86;100148.29;108072;1254;72778;-77
2023/07/18 04:51:43;;;;;;;;;;;;;;;25.18;61.86;100149.83;108115;1254;62345;-79
2023/07/18 04:54:12;;;;;;;;;;;;;;;25.16;61.43;100150.42;108208;1254;60403;-78
2023/07/18 04:56:40;;;;;;;;;;;;;;;25.14;61.16;100145.71;108122;1254;73791;-79
2023/07/18 04:59:10;;;;;;;;;;;;;;;25.15;61.01;100148.30;108136;1256;72825;-78
2023/07/18 05:01:39;;;;;;;;;;;;;;;25.15;60.81;100142.75;108115;1254;72727;-78
2023/07/18 05:04:06;;;;;;;;;;;;;;;25.15;60.28;100140.50;108184;1254;61250;-78
2023/07/18 05:06:33;;;;;;;;;;;;;;;25.18;59.90;100135.61;108284;1255;59427;-76
2023/07/18 05:09:03;;;;;;;;;;;;;;;25.17;59.60;100135.60;108406;1254;74696;-77
2023/07/18 05:11:31;;;;;;;;;;;;;;;25.18;59.70;100140.09;108462;1254;71400;-77
2023/07/18 05:14:02;;;;;;;;;;;;;;;25.22;59.52;100141.93;108373;1254;71279;-77
2023/07/18 05:16:29;;;;;;;;;;;;;;;25.24;59.20;100142.05;108243;1254;61977;-75
2023/07/18 05:18:57;;;;;;;;;;;;;;;25.27;59.09;100139.98;108130;1256;61165;-77
2023/07/18 05:21:24;;;;;;;;;;;;;;;25.30;58.90;100151.52;108138;1259;74723;-76
2023/07/18 05:23:51;;;;;;;;;;;;;;;25.30;58.63;100155.89;108199;1254;70436;-76
2023/07/18 05:26:18;;;;;;;;;;;;;;;25.29;58.59;100170.63;108187;1254;71089;-76
2023/07/18 05:28:45;;;;;;;;;;;;;;;25.25;58.46;100186.10;108173;1254;61298;-76
2023/07/18 05:31:12;;;;;;;;;;;;;;;25.21;58.43;100176.35;108177;1254;61125;-76
2023/07/18 05:33:38;;;;;;;;;;;;;;;25.19;58.27;100166.48;108143;1254;73603;-78
2023/07/18 05:36:06;;;;;;;;;;;;;;;25.18;58.16;100164.61;108118;1254;73162;-77
2023/07/18 05:38:35;;;;;;;;;;;;;;;25.21;58.10;100165.34;108112;1254;72737;-76
2023/07/18 05:41:02;;;;;;;;;;;;;;;25.22;57.99;100158.48;108102;1258;61154;-77
2023/07/18 05:43:29;;;;;;;;;;;;;;;25.21;57.86;100159.89;108008;1254;61359;-78
2023/07/18 05:45:56;;;;;;;;;;;;;;;25.21;57.61;100155.11;108155;1254;73330;-78
2023/07/18 05:48:24;;;;;;;;;;;;;;;25.18;57.69;100155.78;108042;1254;72875;-79
2023/07/18 05:50:51;;;;;;;;;;;;;;;25.19;57.76;100156.88;108109;1254;72574;-76
2023/07/18 05:53:20;;;;;;;;;;;;;;;25.22;57.77;100163.33;108247;1254;62105;-78
2023/07/18 05:55:47;;;;;;;;;;;;;;;25.25;57.46;100163.55;108111;1254;61225;-78
2023/07/18 05:58:15;;;;;;;;;;;;;;;25.28;56.98;100158.89;108053;1255;75727;-78
2023/07/18 06:00:43;;;;;;;;;;;;;;;25.28;56.62;100151.10;108275;1254;72989;-78
2023/07/18 06:03:09;;;;;;;;;;;;;;;25.32;56.54;100146.15;108131;1256;72658;-77
2023/07/18 06:05:36;;;;;;;;;;;;;;;25.39;56.48;100141.42;108060;1256;62029;-78
2023/07/18 06:08:05;;;;;;;;;;;;;;;25.47;56.37;100138.42;107917;1256;61338;-78
2023/07/18 06:10:32;;;;;;;;;;;;;;;25.58;56.17;100139.05;108058;1255;74698;-78
2023/07/18 06:12:59;;;;;;;;;;;;;;;25.70;56.22;100148.05;108051;1255;71301;-77
2023/07/18 06:15:27;;;;;;;;;;;;;;;25.83;56.06;100152.94;107950;1254;71767;-78
2023/07/18 06:17:54;;;;;;;;;;;;;;;25.92;55.67;100156.35;108075;1254;61080;-78
2023/07/18 06:20:22;;;;;;;;;;;;;;;26.00;55.43;100151.55;108106;1254;61335;-77
2023/07/18 06:22:49;;;;;;;;;;;;;;;26.10;55.36;100138.52;107853;1256;73866;-79
2023/07/18 06:25:17;;;;;;;;;;;;;;;26.22;54.82;100124.13;108030;1259;72653;-77
2023/07/18 06:27:44;;;;;;;;;;;;;;;26.33;54.34;100110.86;108004;1255;72677;-77
2023/07/18 06:30:11;;;;;;;;;;;;;;;26.45;53.84;100114.36;108087;1254;62022;-77
2023/07/18 06:32:41;;;;;;;;;;;;;;;26.51;53.48;100116.80;108073;1255;61131;-77
2023/07/18 06:35:10;;;;;;;;;;;;;;;26.55;53.35;100122.70;108128;1254;74571;-77
2023/07/18 06:37:50;;;;;;;;;;;;;;;26.59;53.37;100127.22;108257;1254;73005;-77
2023/07/18 06:40:34;;;;;;;;;;;;;;;26.63;53.30;100123.96;108184;1254;72385;-77
2023/07/18 06:43:20;;;;;;;;;;;;;;;26.69;53.04;100126.77;108136;1254;61180;-78
2023/07/18 06:45:49;;;;;;;;;;;;;;;26.71;53.00;100129.77;108151;1254;61128;-79
2023/07/18 06:48:33;;;;;;;;;;;;;;;26.77;53.01;100130.84;108164;1254;73540;-78
2023/07/18 06:51:33;;;;;;;;;;;;;;;26.90;52.80;100126.64;108146;1254;72555;-78
2023/07/18 06:54:24;;;;;;;;;;;;;;;27.03;52.48;100139.14;108092;1254;73333;-78
2023/07/18 06:57:02;;;;;;;;;;;;;;;27.10;51.74;100143.11;108134;1254;61151;-78
2023/07/18 06:59:30;;;;;;;;;;;;;;;27.10;51.71;100139.73;108109;1257;61113;-77
2023/07/18 07:01:56;;;;;;;;;;;;;;;27.17;51.53;100134.96;108098;1254;74495;-77
2023/07/18 07:04:23;;;;;;;;;;;;;;;27.27;51.53;100127.29;108238;1254;72902;-77
2023/07/18 07:06:50;;;;;;;;;;;;;;;27.40;50.99;100122.67;108068;1254;72664;-77
2023/07/18 07:09:17;;;;;;;;;;;;;;;27.55;50.73;100115.33;108084;1254;61094;-77
2023/07/18 07:11:45;;;;;;;;;;;;;;;27.72;50.48;100111.28;108124;1254;61426;-76
2023/07/18 07:14:12;;;;;;;;;;;;;;;27.86;49.43;100129.33;108145;1254;74694;-77
2023/07/18 07:16:39;;;;;;;;;;;;;;;27.92;49.49;100130.92;108129;1254;72546;-77
2023/07/18 07:19:06;;;;;;;;;;;;;;;28.04;49.50;100128.39;108075;1255;62677;-78
2023/07/18 07:21:33;;;;;;;;;;;;;;;28.19;48.99;100134.08;108080;1254;61254;-77
2023/07/18 07:24:00;;;;;;;;;;;;;;;28.31;48.95;100124.16;108130;1254;61135;-77
2023/07/18 07:26:27;;;;;;;;;;;;;;;28.46;48.74;100122.43;108156;1258;73649;-78
2023/07/18 07:28:54;;;;;;;;;;;;;;;28.50;48.29;100125.27;108025;1256;63948;-78
2023/07/18 07:31:21;;;;;;;;;;;;;;;28.48;47.70;100124.88;108041;1258;72536;-78
2023/07/18 07:33:51;;;;;;;;;;;;;;;28.48;47.56;100121.02;108086;1254;61246;-77
2023/07/18 07:36:20;;;;;;;;;;;;;;;28.48;47.49;100120.80;108046;1257;61384;-77
2023/07/18 07:38:58;;;;;;;;;;;;;;;28.58;47.78;100119.79;108113;1254;74697;-77
2023/07/18 07:41:25;;;;;;;;;;;;;;;28.79;47.37;100123.04;108186;1254;63947;-77
2023/07/18 07:44:06;;;;;;;;;;;;;;;28.94;46.83;100121.41;108053;1254;65486;-78
2023/07/18 07:46:57;;;;;;;;;;;;;;;29.01;46.75;100127.31;108147;1254;61763;-77
2023/07/18 07:49:33;;;;;;;;;;;;;;;29.07;46.64;100133.05;108131;1254;61320;-78
2023/07/18 07:52:09;;;;;;;;;;;;;;;29.04;46.14;100132.98;108147;1254;65925;-78
2023/07/18 07:54:45;;;;;;;;;;;;;;;28.89;46.25;100138.04;108161;1254;64095;-77
2023/07/18 07:57:31;;;;;;;;;;;;;;;28.87;46.60;100138.35;108174;1254;63998;-78
2023/07/18 08:00:16;;;;;;;;;;;;;;;28.89;46.59;100138.14;108185;1254;61359;-77
2023/07/18 08:03:04;;;;;;;;;;;;;;;28.88;46.27;100133.65;108034;1254;61218;-78
2023/07/18 08:05:31;;;;;;;;;;;;;;;28.82;46.04;100134.27;108085;1254;66080;-78
2023/07/18 08:07:58;;;;;;;;;;;;;;;28.72;46.35;100133.48;108158;1254;64027;-78
2023/07/18 08:10:27;;;;;;;;;;;;;;;28.62;47.01;100134.40;108171;1254;64089;-78
2023/07/18 08:12:54;;;;;;;;;;;;;;;28.51;47.59;100134.36;108128;1254;61251;-78
2023/07/18 08:15:22;;;;;;;;;;;;;;;28.45;47.88;100134.52;108060;1255;61108;-78
2023/07/18 08:17:50;;;;;;;;;;;;;;;28.38;47.63;100136.45;108032;1259;67008;-79
2023/07/18 08:20:17;;;;;;;;;;;;;;;28.32;48.02;100135.32;108104;1254;64094;-79
2023/07/18 08:22:46;;;;;;;;;;;;;;;28.27;48.58;100144.00;108173;1253;64086;-78
2023/07/18 08:25:13;;;;;;;;;;;;;;;28.13;48.75;100143.88;108104;1255;61237;-77
2023/07/18 08:27:41;;;;;;;;;;;;;;;27.99;49.42;100143.35;108102;1255;61104;-78
2023/07/18 08:30:09;;;;;;;;;;;;;;;27.88;49.89;100147.54;108088;1256;65921;-78
2023/07/18 08:32:36;;;;;;;;;;;;;;;27.80;50.35;100154.85;108103;1256;64211;-78
2023/07/18 08:35:07;;;;;;;;;;;;;;;27.70;50.72;100149.45;108088;1255;72541;-78
2023/07/18 08:37:34;;;;;;;;;;;;;;;27.61;50.44;100149.14;108127;1254;61269;-80
2023/07/18 08:40:01;;;;;;;;;;;;;;;27.51;50.51;100151.59;108129;1254;61847;-78
2023/07/18 08:42:29;;;;;;;;;;;;;;;27.41;51.02;100146.20;108133;1254;73520;-78
2023/07/18 08:44:56;;;;;;;;;;;;;;;27.31;50.85;100150.52;107973;1255;71253;-78
2023/07/18 08:47:23;;;;;;;;;;;;;;;27.22;51.06;100147.70;108078;1254;72672;-77
2023/07/18 08:49:50;;;;;;;;;;;;;;;27.12;51.21;100157.30;107924;1255;61161;-79
2023/07/18 08:52:17;;;;;;;;;;;;;;;27.01;51.67;100156.65;108012;1254;61121;-81
2023/07/18 08:54:43;;;;;;;;;;;;;;;26.93;52.04;100164.80;108020;1254;74579;-77
2023/07/18 08:57:10;;;;;;;;;;;;;;;26.84;52.71;100169.98;108027;1254;72692;-79
2023/07/18 08:59:41;;;;;;;;;;;;;;;26.72;53.10;100169.22;107959;1254;72528;-80
2023/07/18 09:02:08;;;;;;;;;;;;;;;26.55;54.16;100165.75;108025;1254;61752;-79
2023/07/18 09:04:35;;;;;;;;;;;;;;;26.44;54.93;100157.70;108052;1255;61175;-76
2023/07/18 09:07:02;;;;;;;;;;;;;;;26.38;55.78;100153.64;108052;1254;74412;-79
2023/07/18 09:09:29;;;;;;;;;;;;;;;26.33;56.22;100150.39;108074;1254;71721;-77
2023/07/18 09:11:59;;;;;;;;;;;;;;;26.33;56.57;100156.39;108100;1253;72729;-79
2023/07/18 09:14:31;;;;;;;;;;;;;;;26.32;56.91;100162.08;108069;1254;61223;-79
2023/07/18 09:17:03;;;;;;;;;;;;;;;26.29;57.30;100156.04;108193;1254;61175;-78
2023/07/18 09:19:39;;;;;;;;;;;;;;;26.26;57.70;100154.13;108004;1259;74723;-79
2023/07/18 09:22:07;;;;;;;;;;;;;;;26.24;58.08;100153.64;107963;1257;72599;-78
2023/07/18 09:24:35;;;;;;;;;;;;;;;26.26;58.22;100142.78;107975;1257;72781;-78
2023/07/18 09:27:07;;;;;;;;;;;;;;;26.31;58.63;100150.42;107984;1255;62303;-77
2023/07/18 09:29:33;;;;;;;;;;;;;;;26.36;59.13;100158.93;108081;1254;60441;-78
2023/07/18 09:32:00;;;;;;;;;;;;;;;26.34;59.52;100172.14;108046;1254;75351;-77
2023/07/18 09:34:28;;;;;;;;;;;;;;;26.25;59.86;100175.16;108072;1254;72750;-78
2023/07/18 09:36:59;;;;;;;;;;;;;;;26.04;60.34;100166.90;108052;1254;73214;-77
2023/07/18 09:39:26;;;;;;;;;;;;;;;25.81;60.67;100163.37;108064;1255;62131;-82
2023/07/18 09:41:54;;;;;;;;;;;;;;;25.64;60.99;100162.66;108103;1254;61157;-79
2023/07/18 09:44:22;;;;;;;;;;;;;;;25.57;61.23;100167.86;108051;1255;74493;-79
2023/07/18 09:47:00;;;;;;;;;;;;;;;25.56;61.55;100164.48;108046;1254;71175;-82
2023/07/18 09:49:28;;;;;;;;;;;;;;;25.57;61.33;100158.02;108086;1255;72634;-80
2023/07/18 09:52:03;;;;;;;;;;;;;;;25.61;61.40;100158.23;108043;1254;62377;-82
2023/07/18 09:54:31;;;;;;;;;;;;;;;25.66;61.37;100156.36;108070;1258;61279;-77
2023/07/18 09:57:05;;;;;;;;;;;;;;;25.77;61.01;100151.83;108070;1255;74524;-78
2023/07/18 09:59:33;;;;;;;;;;;;;;;25.89;60.77;100152.80;108076;1257;73316;-79
2023/07/18 10:02:04;;;;;;;;;;;;;;;26.01;60.61;100152.73;107976;1256;73557;-77
2023/07/18 10:04:32;;;;;;;;;;;;;;;26.12;60.66;100151.84;107973;1254;61219;-78
2023/07/18 10:07:00;;;;;;;;;;;;;;;26.18;60.33;100156.53;108137;1254;61141;-78
2023/07/18 10:09:28;;;;;;;;;;;;;;;26.20;60.21;100153.97;108074;1256;74781;-77
2023/07/18 10:11:57;;;;;;;;;;;;;;;26.33;60.29;100146.86;108100;1254;72730;-78
2023/07/18 10:14:31;;;;;;;;;;;;;;;26.55;59.84;100144.70;108067;1254;72543;-78
2023/07/18 10:17:05;;;;;;;;;;;;;;;26.79;59.41;100141.27;107916;1254;62745;-77
2023/07/18 10:19:50;;;;;;;;;;;;;;;26.94;58.21;100142.98;107893;1255;61144;-77
2023/07/18 10:22:28;;;;;;;;;;;;;;;27.05;58.37;100133.75;108052;1255;74834;-77
2023/07/18 10:24:59;;;;;;;;;;;;;;;27.26;58.28;100136.68;108056;1256;72729;-78
2023/07/18 10:27:40;;;;;;;;;;;;;;;27.49;57.41;100140.15;107987;1256;63379;-77
2023/07/18 10:30:08;;;;;;;;;;;;;;;27.63;55.87;100135.05;108079;1255;61117;-80
2023/07/18 10:32:37;;;;;;;;;;;;;;;27.75;56.11;100126.66;108087;1254;61129;-79
2023/07/18 10:35:08;;;;;;;;;;;;;;;27.92;55.87;100131.00;108101;1255;75803;-79
2023/07/18 10:37:36;;;;;;;;;;;;;;;28.11;55.13;100135.94;107947;1255;72879;-78
2023/07/18 10:40:05;;;;;;;;;;;;;;;28.18;55.49;100134.48;108045;1256;63925;-78
2023/07/18 10:42:34;;;;;;;;;;;;;;;28.37;55.37;100131.34;107925;1255;59218;-79
2023/07/18 10:45:03;;;;;;;;;;;;;;;28.55;54.79;100134.07;108024;1256;59701;-79
2023/07/18 10:47:31;;;;;;;;;;;;;;;28.74;53.73;100125.54;108037;1256;66105;-78
2023/07/18 10:49:58;;;;;;;;;;;;;;;28.95;53.18;100121.87;108039;1255;72562;-79
2023/07/18 10:52:25;;;;;;;;;;;;;;;29.25;52.27;100121.02;108032;1255;63921;-77
2023/07/18 10:54:56;;;;;;;;;;;;;;;29.46;51.66;100121.77;108024;1256;61047;-77
2023/07/18 10:57:27;;;;;;;;;;;;;;;29.67;49.66;100119.47;108011;1256;61261;-77
2023/07/18 10:59:53;;;;;;;;;;;;;;;29.80;48.48;100116.14;108063;1254;65220;-77
2023/07/18 11:02:20;;;;;;;;;;;;;;;29.96;46.97;100113.95;108096;1256;63972;-77
2023/07/18 11:04:47;;;;;;;;;;;;;;;30.11;45.86;100112.63;108000;1255;65312;-76
2023/07/18 13:06:31;;;;;;;;;;;;;;;31.43;31.49;100042.80;107917;1256;66024;-85
2023/07/18 15:08:24;;;;;;;;;;;;;;;34.98;23.42;100041.92;107794;1254;63875;-79
2023/07/18 15:10:50;;;;;;;;;;;;;;;35.09;23.24;100047.60;107850;1256;65986;-80
2023/07/18 15:13:21;;;;;;;;;;;;;;;35.19;23.34;100046.52;107853;1254;61174;-78
2023/07/18 15:15:53;;;;;;;;;;;;;;;35.22;23.36;100049.55;95659;1256;10002009;-79
2023/07/18 15:18:24;;;;;;;;;;;;;;;35.23;23.67;100051.91;107974;1257;71562;-79
2023/07/18 15:20:50;;;;;;;;;;;;;;;35.22;23.79;100051.45;107926;1259;65866;-81
2023/07/18 15:23:17;;;;;;;;;;;;;;;35.23;24.22;100050.77;107899;1255;59045;-79
2023/07/18 15:25:45;;;;;;;;;;;;;;;35.47;23.79;100057.98;107791;1254;61881;-78
2023/07/18 15:28:14;;;;;;;;;;;;;;;35.62;23.47;100066.48;107875;1256;65952;-81
2023/07/18 15:30:42;;;;;;;;;;;;;;;35.70;23.06;100069.83;107931;1257;63988;-78
2023/07/18 15:33:09;;;;;;;;;;;;;;;35.74;23.33;100070.26;107780;1256;62864;-78
2023/07/18 15:35:53;;;;;;;;;;;;;;;35.81;22.52;100073.08;107728;1254;61079;-78
2023/07/18 15:38:21;;;;;;;;;;;;;;;35.76;21.81;100086.63;107958;1254;61346;-77
2023/07/18 15:40:48;;;;;;;;;;;;;;;35.60;21.88;100083.50;108079;1255;67304;-78
2023/07/18 15:43:17;;;;;;;;;;;;;;;35.45;21.07;100079.71;107916;1259;64165;-78
2023/07/18 15:45:47;;;;;;;;;;;;;;;35.35;21.29;100083.79;107812;1259;64145;-79
2023/07/18 15:48:16;;;;;;;;;;;;;;;35.41;21.72;100079.27;107822;1254;61048;-78
2023/07/18 15:50:49;;;;;;;;;;;;;;;35.53;21.77;100079.42;107756;1256;61245;-77
2023/07/18 15:53:16;;;;;;;;;;;;;;;35.64;21.68;100076.19;107877;1254;64883;-76
2023/07/18 15:55:43;;;;;;;;;;;;;;;35.74;21.76;100077.58;107885;1258;64046;-78
2023/07/18 15:58:09;;;;;;;;;;;;;;;35.65;21.54;100086.78;107841;1254;64551;-76
2023/07/18 18:00:06;;;;;;;;;;;;;;;27.11;32.51;100185.73;108036;1258;71232;-80
2023/07/18 18:02:34;;;;;;;;;;;;;;;26.95;32.65;100185.59;108036;1254;61167;-79
2023/07/18 18:05:22;;;;;;;;;;;;;;;26.83;33.10;100189.84;108051;1254;60005;-79
2023/07/18 18:07:49;;;;;;;;;;;;;;;26.71;33.49;100188.70;107970;1258;74918;-78
2023/07/18 18:10:17;;;;;;;;;;;;;;;26.54;33.76;100189.23;108146;1254;72754;-80
2023/07/18 18:12:44;;;;;;;;;;;;;;;26.46;33.63;100191.62;108020;1254;71441;-79
2023/07/18 18:15:11;;;;;;;;;;;;;;;26.31;33.72;100190.79;108050;1257;61625;-79
2023/07/18 18:17:38;;;;;;;;;;;;;;;26.19;33.58;100194.01;107949;1254;61251;-79
2023/07/18 18:20:06;;;;;;;;;;;;;;;26.17;33.53;100194.86;108022;1257;74649;-81
2023/07/18 18:22:33;;;;;;;;;;;;;;;26.09;33.58;100193.95;108064;1254;72870;-79
2023/07/18 18:25:00;;;;;;;;;;;;;;;26.02;33.65;100196.98;108011;1254;72497;-78
2023/07/18 18:27:28;;;;;;;;;;;;;;;25.88;33.94;100203.59;108024;1254;61227;-79
2023/07/18 18:29:54;;;;;;;;;;;;;;;25.82;33.84;100207.26;108019;1254;61250;-77
2023/07/18 18:32:21;;;;;;;;;;;;;;;25.68;34.07;100207.11;107931;1257;74691;-79